sensor_id;sensor_type;location;lat;lon;timestamp;P1;durP1;ratioP1;P2;durP2;ratioP2
72569;SDS011;60594;50.204;8.844;2024-02-16T00:00:14;3.88;;;1.83;;
72569;SDS011;60594;50.204;8.844;2024-02-16T00:03:21;5.28;;;1.88;;
72569;SDS011;60594;50.204;8.844;2024-02-16T00:06:07;5.18;;;1.65;;
72569;SDS011;60594;50.204;8.844;2024-02-16T00:08:51;3.80;;;1.55;;
72569;SDS011;60594;50.204;8.844;2024-02-16T00:11:37;4.43;;;1.80;;
72569;SDS011;60594;50.204;8.844;2024-02-16T00:14:22;4.85;;;1.70;;
72569;SDS011;60594;50.204;8.844;2024-02-16T00:17:07;4.38;;;2.00;;
72569;SDS011;60594;50.204;8.844;2024-02-16T00:19:58;3.30;;;1.50;;
72569;SDS011;60594;50.204;8.844;2024-02-16T00:22:42;4.88;;;1.75;;
72569;SDS011;60594;50.204;8.844;2024-02-16T00:25:27;3.80;;;1.60;;
72569;SDS011;60594;50.204;8.844;2024-02-16T00:28:12;6.07;;;2.00;;
72569;SDS011;60594;50.204;8.844;2024-02-16T00:30:58;6.40;;;2.20;;
72569;SDS011;60594;50.204;8.844;2024-02-16T00:33:42;4.68;;;1.63;;
72569;SDS011;60594;50.204;8.844;2024-02-16T00:36:27;3.83;;;1.63;;
72569;SDS011;60594;50.204;8.844;2024-02-16T00:41:59;4.03;;;1.60;;
72569;SDS011;60594;50.204;8.844;2024-02-16T00:44:44;3.65;;;1.63;;
72569;SDS011;60594;50.204;8.844;2024-02-16T00:47:29;6.25;;;1.90;;
72569;SDS011;60594;50.204;8.844;2024-02-16T00:50:14;3.65;;;1.65;;
72569;SDS011;60594;50.204;8.844;2024-02-16T00:53:00;5.15;;;1.80;;
72569;SDS011;60594;50.204;8.844;2024-02-16T00:55:45;3.55;;;1.50;;
72569;SDS011;60594;50.204;8.844;2024-02-16T00:58:30;4.57;;;1.80;;
72569;SDS011;60594;50.204;8.844;2024-02-16T01:01:14;5.20;;;1.60;;
72569;SDS011;60594;50.204;8.844;2024-02-16T01:04:01;4.32;;;1.77;;
72569;SDS011;60594;50.204;8.844;2024-02-16T01:06:47;3.90;;;1.40;;
72569;SDS011;60594;50.204;8.844;2024-02-16T01:09:32;4.97;;;1.70;;
72569;SDS011;60594;50.204;8.844;2024-02-16T01:12:16;4.72;;;1.50;;
72569;SDS011;60594;50.204;8.844;2024-02-16T01:15:01;3.92;;;1.58;;
72569;SDS011;60594;50.204;8.844;2024-02-16T01:17:46;3.25;;;1.67;;
72569;SDS011;60594;50.204;8.844;2024-02-16T01:20:31;4.03;;;1.63;;
72569;SDS011;60594;50.204;8.844;2024-02-16T01:23:16;3.70;;;1.52;;
72569;SDS011;60594;50.204;8.844;2024-02-16T01:26:01;5.40;;;1.77;;
72569;SDS011;60594;50.204;8.844;2024-02-16T01:28:46;3.80;;;1.77;;
72569;SDS011;60594;50.204;8.844;2024-02-16T01:31:31;4.57;;;1.60;;
72569;SDS011;60594;50.204;8.844;2024-02-16T01:34:15;4.43;;;1.90;;
72569;SDS011;60594;50.204;8.844;2024-02-16T01:37:00;4.35;;;1.58;;
72569;SDS011;60594;50.204;8.844;2024-02-16T01:39:45;3.53;;;1.75;;
72569;SDS011;60594;50.204;8.844;2024-02-16T01:42:30;5.90;;;1.88;;
72569;SDS011;60594;50.204;8.844;2024-02-16T01:45:15;5.10;;;2.03;;
72569;SDS011;60594;50.204;8.844;2024-02-16T01:48:01;4.18;;;1.73;;
72569;SDS011;60594;50.204;8.844;2024-02-16T01:50:47;5.25;;;1.60;;
72569;SDS011;60594;50.204;8.844;2024-02-16T01:53:32;3.38;;;1.67;;
72569;SDS011;60594;50.204;8.844;2024-02-16T01:56:18;4.28;;;1.70;;
72569;SDS011;60594;50.204;8.844;2024-02-16T01:59:05;4.40;;;1.75;;
72569;SDS011;60594;50.204;8.844;2024-02-16T02:01:50;3.05;;;1.50;;
72569;SDS011;60594;50.204;8.844;2024-02-16T02:04:36;3.90;;;1.70;;
72569;SDS011;60594;50.204;8.844;2024-02-16T02:07:24;3.58;;;1.38;;
72569;SDS011;60594;50.204;8.844;2024-02-16T02:10:11;4.07;;;1.65;;
72569;SDS011;60594;50.204;8.844;2024-02-16T02:12:57;3.92;;;1.65;;
72569;SDS011;60594;50.204;8.844;2024-02-16T02:15:42;5.35;;;1.65;;
72569;SDS011;60594;50.204;8.844;2024-02-16T02:18:27;3.40;;;1.70;;
72569;SDS011;60594;50.204;8.844;2024-02-16T02:21:12;4.45;;;1.50;;
72569;SDS011;60594;50.204;8.844;2024-02-16T02:23:58;4.72;;;1.98;;
72569;SDS011;60594;50.204;8.844;2024-02-16T02:26:43;5.03;;;1.70;;
72569;SDS011;60594;50.204;8.844;2024-02-16T02:29:28;6.55;;;1.80;;
72569;SDS011;60594;50.204;8.844;2024-02-16T02:32:13;6.85;;;1.80;;
72569;SDS011;60594;50.204;8.844;2024-02-16T02:34:58;4.22;;;1.70;;
72569;SDS011;60594;50.204;8.844;2024-02-16T02:37:43;4.85;;;1.70;;
72569;SDS011;60594;50.204;8.844;2024-02-16T02:40:28;4.97;;;1.80;;
72569;SDS011;60594;50.204;8.844;2024-02-16T02:43:13;4.32;;;1.77;;
72569;SDS011;60594;50.204;8.844;2024-02-16T02:45:58;4.28;;;1.70;;
72569;SDS011;60594;50.204;8.844;2024-02-16T02:48:44;3.25;;;1.45;;
72569;SDS011;60594;50.204;8.844;2024-02-16T02:51:30;4.00;;;1.40;;
72569;SDS011;60594;50.204;8.844;2024-02-16T02:54:15;5.82;;;1.90;;
72569;SDS011;60594;50.204;8.844;2024-02-16T02:57:00;3.72;;;1.52;;
72569;SDS011;60594;50.204;8.844;2024-02-16T02:59:46;3.97;;;1.90;;
72569;SDS011;60594;50.204;8.844;2024-02-16T03:02:31;3.47;;;1.63;;
72569;SDS011;60594;50.204;8.844;2024-02-16T03:05:16;3.80;;;1.77;;
72569;SDS011;60594;50.204;8.844;2024-02-16T03:08:03;4.28;;;1.70;;
72569;SDS011;60594;50.204;8.844;2024-02-16T03:10:48;4.22;;;2.33;;
72569;SDS011;60594;50.204;8.844;2024-02-16T03:13:34;3.83;;;1.77;;
72569;SDS011;60594;50.204;8.844;2024-02-16T03:16:19;4.93;;;1.90;;
72569;SDS011;60594;50.204;8.844;2024-02-16T03:19:05;4.13;;;1.70;;
72569;SDS011;60594;50.204;8.844;2024-02-16T03:21:53;4.53;;;1.73;;
72569;SDS011;60594;50.204;8.844;2024-02-16T03:24:38;3.92;;;1.48;;
72569;SDS011;60594;50.204;8.844;2024-02-16T03:27:23;3.88;;;1.60;;
72569;SDS011;60594;50.204;8.844;2024-02-16T03:30:08;3.65;;;1.60;;
72569;SDS011;60594;50.204;8.844;2024-02-16T03:32:53;4.05;;;1.90;;
72569;SDS011;60594;50.204;8.844;2024-02-16T03:35:38;3.90;;;1.40;;
72569;SDS011;60594;50.204;8.844;2024-02-16T03:38:23;4.80;;;1.88;;
72569;SDS011;60594;50.204;8.844;2024-02-16T03:41:08;6.00;;;1.67;;
72569;SDS011;60594;50.204;8.844;2024-02-16T03:43:56;3.53;;;1.50;;
72569;SDS011;60594;50.204;8.844;2024-02-16T03:46:42;4.10;;;1.70;;
72569;SDS011;60594;50.204;8.844;2024-02-16T03:49:28;4.47;;;1.60;;
72569;SDS011;60594;50.204;8.844;2024-02-16T03:52:13;5.43;;;1.70;;
72569;SDS011;60594;50.204;8.844;2024-02-16T03:54:58;5.05;;;1.70;;
72569;SDS011;60594;50.204;8.844;2024-02-16T03:57:43;4.47;;;1.60;;
72569;SDS011;60594;50.204;8.844;2024-02-16T04:00:29;4.10;;;1.77;;
72569;SDS011;60594;50.204;8.844;2024-02-16T04:03:13;6.20;;;1.85;;
72569;SDS011;60594;50.204;8.844;2024-02-16T04:05:58;3.58;;;1.75;;
72569;SDS011;60594;50.204;8.844;2024-02-16T04:08:44;3.72;;;1.95;;
72569;SDS011;60594;50.204;8.844;2024-02-16T04:11:29;4.25;;;2.13;;
72569;SDS011;60594;50.204;8.844;2024-02-16T04:14:15;3.75;;;1.90;;
72569;SDS011;60594;50.204;8.844;2024-02-16T04:17:00;3.60;;;1.70;;
72569;SDS011;60594;50.204;8.844;2024-02-16T04:19:45;4.93;;;1.77;;
72569;SDS011;60594;50.204;8.844;2024-02-16T04:22:30;4.97;;;1.80;;
72569;SDS011;60594;50.204;8.844;2024-02-16T04:25:15;5.47;;;1.70;;
72569;SDS011;60594;50.204;8.844;2024-02-16T04:28:00;4.88;;;2.00;;
72569;SDS011;60594;50.204;8.844;2024-02-16T04:30:44;4.75;;;1.80;;
72569;SDS011;60594;50.204;8.844;2024-02-16T04:33:30;4.43;;;1.88;;
72569;SDS011;60594;50.204;8.844;2024-02-16T04:36:14;3.90;;;1.80;;
72569;SDS011;60594;50.204;8.844;2024-02-16T04:38:59;4.45;;;1.92;;
72569;SDS011;60594;50.204;8.844;2024-02-16T04:41:44;4.95;;;2.20;;
72569;SDS011;60594;50.204;8.844;2024-02-16T04:44:30;5.07;;;1.90;;
72569;SDS011;60594;50.204;8.844;2024-02-16T04:47:14;4.78;;;2.05;;
72569;SDS011;60594;50.204;8.844;2024-02-16T04:50:00;4.13;;;2.00;;
72569;SDS011;60594;50.204;8.844;2024-02-16T04:52:45;4.95;;;1.90;;
72569;SDS011;60594;50.204;8.844;2024-02-16T04:55:30;6.00;;;2.13;;
72569;SDS011;60594;50.204;8.844;2024-02-16T04:58:15;4.15;;;2.08;;
72569;SDS011;60594;50.204;8.844;2024-02-16T05:01:01;4.78;;;1.92;;
72569;SDS011;60594;50.204;8.844;2024-02-16T05:03:46;6.15;;;2.20;;
72569;SDS011;60594;50.204;8.844;2024-02-16T05:06:32;6.28;;;2.17;;
72569;SDS011;60594;50.204;8.844;2024-02-16T05:09:17;5.13;;;2.00;;
72569;SDS011;60594;50.204;8.844;2024-02-16T05:12:02;4.43;;;2.13;;
72569;SDS011;60594;50.204;8.844;2024-02-16T05:14:50;5.95;;;2.03;;
72569;SDS011;60594;50.204;8.844;2024-02-16T05:17:35;4.38;;;1.90;;
72569;SDS011;60594;50.204;8.844;2024-02-16T05:20:20;4.03;;;1.90;;
72569;SDS011;60594;50.204;8.844;2024-02-16T05:23:05;4.07;;;1.63;;
72569;SDS011;60594;50.204;8.844;2024-02-16T05:25:50;3.45;;;1.67;;
72569;SDS011;60594;50.204;8.844;2024-02-16T05:28:35;4.82;;;2.08;;
72569;SDS011;60594;50.204;8.844;2024-02-16T05:31:20;5.45;;;2.20;;
72569;SDS011;60594;50.204;8.844;2024-02-16T05:34:05;6.25;;;2.20;;
72569;SDS011;60594;50.204;8.844;2024-02-16T05:36:50;3.70;;;1.65;;
72569;SDS011;60594;50.204;8.844;2024-02-16T05:39:38;5.00;;;2.30;;
72569;SDS011;60594;50.204;8.844;2024-02-16T05:42:37;6.97;;;2.97;;
72569;SDS011;60594;50.204;8.844;2024-02-16T05:45:24;6.03;;;2.50;;
72569;SDS011;60594;50.204;8.844;2024-02-16T05:48:11;4.63;;;2.33;;
72569;SDS011;60594;50.204;8.844;2024-02-16T05:51:02;7.22;;;1.80;;
72569;SDS011;60594;50.204;8.844;2024-02-16T05:53:48;4.55;;;2.13;;
72569;SDS011;60594;50.204;8.844;2024-02-16T05:56:33;4.35;;;1.77;;
72569;SDS011;60594;50.204;8.844;2024-02-16T05:59:19;4.13;;;1.85;;
72569;SDS011;60594;50.204;8.844;2024-02-16T06:02:04;4.22;;;2.03;;
72569;SDS011;60594;50.204;8.844;2024-02-16T06:04:51;6.70;;;2.20;;
72569;SDS011;60594;50.204;8.844;2024-02-16T06:07:36;3.70;;;2.00;;
72569;SDS011;60594;50.204;8.844;2024-02-16T06:10:24;5.43;;;1.83;;
72569;SDS011;60594;50.204;8.844;2024-02-16T06:13:10;4.43;;;1.75;;
72569;SDS011;60594;50.204;8.844;2024-02-16T06:15:55;6.75;;;2.08;;
72569;SDS011;60594;50.204;8.844;2024-02-16T06:18:40;4.60;;;1.98;;
72569;SDS011;60594;50.204;8.844;2024-02-16T06:21:26;6.35;;;2.08;;
72569;SDS011;60594;50.204;8.844;2024-02-16T06:24:11;9.07;;;2.13;;
72569;SDS011;60594;50.204;8.844;2024-02-16T06:26:56;4.75;;;2.00;;
72569;SDS011;60594;50.204;8.844;2024-02-16T06:29:41;6.28;;;2.03;;
72569;SDS011;60594;50.204;8.844;2024-02-16T06:32:27;5.32;;;1.80;;
72569;SDS011;60594;50.204;8.844;2024-02-16T06:35:13;5.82;;;2.28;;
72569;SDS011;60594;50.204;8.844;2024-02-16T06:37:58;3.95;;;1.90;;
72569;SDS011;60594;50.204;8.844;2024-02-16T06:40:43;6.25;;;1.88;;
72569;SDS011;60594;50.204;8.844;2024-02-16T06:43:28;4.57;;;1.90;;
72569;SDS011;60594;50.204;8.844;2024-02-16T06:46:13;4.28;;;1.95;;
72569;SDS011;60594;50.204;8.844;2024-02-16T06:48:58;4.30;;;2.15;;
72569;SDS011;60594;50.204;8.844;2024-02-16T06:51:43;6.18;;;2.03;;
72569;SDS011;60594;50.204;8.844;2024-02-16T06:54:29;4.68;;;2.30;;
72569;SDS011;60594;50.204;8.844;2024-02-16T06:57:14;5.60;;;1.90;;
72569;SDS011;60594;50.204;8.844;2024-02-16T06:59:59;4.55;;;2.03;;
72569;SDS011;60594;50.204;8.844;2024-02-16T07:02:44;5.30;;;2.28;;
72569;SDS011;60594;50.204;8.844;2024-02-16T07:05:29;6.18;;;1.95;;
72569;SDS011;60594;50.204;8.844;2024-02-16T07:08:16;6.10;;;2.63;;
72569;SDS011;60594;50.204;8.844;2024-02-16T07:11:01;4.97;;;2.00;;
72569;SDS011;60594;50.204;8.844;2024-02-16T07:13:48;4.95;;;2.30;;
72569;SDS011;60594;50.204;8.844;2024-02-16T07:16:32;4.57;;;1.73;;
72569;SDS011;60594;50.204;8.844;2024-02-16T07:19:17;6.15;;;2.17;;
72569;SDS011;60594;50.204;8.844;2024-02-16T07:22:02;5.30;;;2.20;;
72569;SDS011;60594;50.204;8.844;2024-02-16T07:24:47;4.00;;;1.98;;
72569;SDS011;60594;50.204;8.844;2024-02-16T07:27:32;3.72;;;1.85;;
72569;SDS011;60594;50.204;8.844;2024-02-16T07:30:17;5.10;;;2.03;;
72569;SDS011;60594;50.204;8.844;2024-02-16T07:33:02;4.57;;;1.90;;
72569;SDS011;60594;50.204;8.844;2024-02-16T07:35:48;4.20;;;1.85;;
72569;SDS011;60594;50.204;8.844;2024-02-16T07:38:32;4.78;;;2.22;;
72569;SDS011;60594;50.204;8.844;2024-02-16T07:41:18;5.85;;;2.45;;
72569;SDS011;60594;50.204;8.844;2024-02-16T07:44:02;5.70;;;2.42;;
72569;SDS011;60594;50.204;8.844;2024-02-16T07:46:47;4.55;;;2.40;;
72569;SDS011;60594;50.204;8.844;2024-02-16T07:49:37;4.45;;;1.98;;
72569;SDS011;60594;50.204;8.844;2024-02-16T07:52:23;4.30;;;2.03;;
72569;SDS011;60594;50.204;8.844;2024-02-16T07:55:08;4.85;;;2.20;;
72569;SDS011;60594;50.204;8.844;2024-02-16T07:57:53;6.10;;;2.17;;
72569;SDS011;60594;50.204;8.844;2024-02-16T08:00:38;5.50;;;2.40;;
72569;SDS011;60594;50.204;8.844;2024-02-16T08:03:23;4.75;;;2.33;;
72569;SDS011;60594;50.204;8.844;2024-02-16T08:06:08;5.57;;;2.38;;
72569;SDS011;60594;50.204;8.844;2024-02-16T08:08:53;5.07;;;2.63;;
72569;SDS011;60594;50.204;8.844;2024-02-16T08:11:39;6.80;;;2.13;;
72569;SDS011;60594;50.204;8.844;2024-02-16T08:14:24;5.10;;;2.13;;
72569;SDS011;60594;50.204;8.844;2024-02-16T08:17:09;5.45;;;2.20;;
72569;SDS011;60594;50.204;8.844;2024-02-16T08:19:54;4.53;;;2.33;;
72569;SDS011;60594;50.204;8.844;2024-02-16T08:22:39;7.22;;;2.67;;
72569;SDS011;60594;50.204;8.844;2024-02-16T08:25:24;6.82;;;2.55;;
72569;SDS011;60594;50.204;8.844;2024-02-16T08:28:09;6.82;;;2.78;;
72569;SDS011;60594;50.204;8.844;2024-02-16T08:30:54;5.40;;;2.58;;
72569;SDS011;60594;50.204;8.844;2024-02-16T08:33:39;5.32;;;2.35;;
72569;SDS011;60594;50.204;8.844;2024-02-16T08:36:24;4.18;;;2.10;;
72569;SDS011;60594;50.204;8.844;2024-02-16T08:39:13;5.68;;;2.55;;
72569;SDS011;60594;50.204;8.844;2024-02-16T08:41:59;5.82;;;2.45;;
72569;SDS011;60594;50.204;8.844;2024-02-16T08:44:43;5.30;;;2.55;;
72569;SDS011;60594;50.204;8.844;2024-02-16T08:47:29;4.68;;;2.30;;
72569;SDS011;60594;50.204;8.844;2024-02-16T08:50:13;6.55;;;2.72;;
72569;SDS011;60594;50.204;8.844;2024-02-16T08:52:58;5.35;;;2.45;;
72569;SDS011;60594;50.204;8.844;2024-02-16T08:55:43;5.65;;;2.30;;
72569;SDS011;60594;50.204;8.844;2024-02-16T08:58:29;6.43;;;2.78;;
72569;SDS011;60594;50.204;8.844;2024-02-16T09:01:14;3.70;;;2.05;;
72569;SDS011;60594;50.204;8.844;2024-02-16T09:04:01;5.22;;;2.65;;
72569;SDS011;60594;50.204;8.844;2024-02-16T09:06:47;5.72;;;2.40;;
72569;SDS011;60594;50.204;8.844;2024-02-16T09:09:33;4.72;;;2.17;;
72569;SDS011;60594;50.204;8.844;2024-02-16T09:12:18;5.53;;;2.47;;
72569;SDS011;60594;50.204;8.844;2024-02-16T09:15:03;6.07;;;2.80;;
72569;SDS011;60594;50.204;8.844;2024-02-16T09:17:50;5.82;;;2.60;;
72569;SDS011;60594;50.204;8.844;2024-02-16T09:20:35;6.97;;;2.88;;
72569;SDS011;60594;50.204;8.844;2024-02-16T09:23:20;5.07;;;2.65;;
72569;SDS011;60594;50.204;8.844;2024-02-16T09:26:05;5.18;;;2.50;;
72569;SDS011;60594;50.204;8.844;2024-02-16T09:28:51;5.68;;;2.33;;
72569;SDS011;60594;50.204;8.844;2024-02-16T09:31:36;5.32;;;2.58;;
72569;SDS011;60594;50.204;8.844;2024-02-16T09:34:21;5.88;;;2.67;;
72569;SDS011;60594;50.204;8.844;2024-02-16T09:37:05;7.28;;;3.25;;
72569;SDS011;60594;50.204;8.844;2024-02-16T09:39:50;6.30;;;3.47;;
72569;SDS011;60594;50.204;8.844;2024-02-16T09:42:37;6.70;;;3.13;;
72569;SDS011;60594;50.204;8.844;2024-02-16T09:45:23;7.32;;;3.65;;
72569;SDS011;60594;50.204;8.844;2024-02-16T09:48:09;7.68;;;3.40;;
72569;SDS011;60594;50.204;8.844;2024-02-16T09:50:55;6.15;;;3.00;;
72569;SDS011;60594;50.204;8.844;2024-02-16T09:53:41;5.75;;;2.83;;
72569;SDS011;60594;50.204;8.844;2024-02-16T09:56:26;5.82;;;2.90;;
72569;SDS011;60594;50.204;8.844;2024-02-16T09:59:11;8.23;;;3.28;;
72569;SDS011;60594;50.204;8.844;2024-02-16T10:02:03;6.35;;;3.38;;
72569;SDS011;60594;50.204;8.844;2024-02-16T10:04:49;9.90;;;3.42;;
72569;SDS011;60594;50.204;8.844;2024-02-16T10:07:33;6.78;;;3.47;;
72569;SDS011;60594;50.204;8.844;2024-02-16T10:10:25;6.88;;;3.35;;
72569;SDS011;60594;50.204;8.844;2024-02-16T10:13:12;6.22;;;3.35;;
72569;SDS011;60594;50.204;8.844;2024-02-16T10:16:09;7.82;;;3.47;;
72569;SDS011;60594;50.204;8.844;2024-02-16T10:18:56;5.90;;;3.47;;
72569;SDS011;60594;50.204;8.844;2024-02-16T10:21:48;6.75;;;3.30;;
72569;SDS011;60594;50.204;8.844;2024-02-16T10:24:33;5.68;;;2.92;;
72569;SDS011;60594;50.204;8.844;2024-02-16T10:27:18;6.40;;;3.17;;
72569;SDS011;60594;50.204;8.844;2024-02-16T10:30:04;7.15;;;3.95;;
72569;SDS011;60594;50.204;8.844;2024-02-16T10:32:54;5.82;;;3.15;;
72569;SDS011;60594;50.204;8.844;2024-02-16T10:35:39;5.90;;;3.50;;
72569;SDS011;60594;50.204;8.844;2024-02-16T10:38:25;8.27;;;3.60;;
72569;SDS011;60594;50.204;8.844;2024-02-16T10:41:12;6.78;;;3.28;;
72569;SDS011;60594;50.204;8.844;2024-02-16T10:43:57;7.60;;;3.83;;
72569;SDS011;60594;50.204;8.844;2024-02-16T10:46:42;6.18;;;3.40;;
72569;SDS011;60594;50.204;8.844;2024-02-16T10:49:27;7.78;;;3.90;;
72569;SDS011;60594;50.204;8.844;2024-02-16T10:52:12;7.80;;;3.55;;
72569;SDS011;60594;50.204;8.844;2024-02-16T10:55:00;9.07;;;4.07;;
72569;SDS011;60594;50.204;8.844;2024-02-16T10:57:45;10.90;;;3.75;;
72569;SDS011;60594;50.204;8.844;2024-02-16T11:00:30;8.88;;;4.03;;
72569;SDS011;60594;50.204;8.844;2024-02-16T11:03:16;7.75;;;4.03;;
72569;SDS011;60594;50.204;8.844;2024-02-16T11:06:01;8.13;;;3.70;;
72569;SDS011;60594;50.204;8.844;2024-02-16T11:09:02;7.85;;;3.90;;
72569;SDS011;60594;50.204;8.844;2024-02-16T11:11:55;5.95;;;3.20;;
72569;SDS011;60594;50.204;8.844;2024-02-16T11:14:46;6.13;;;3.30;;
72569;SDS011;60594;50.204;8.844;2024-02-16T11:17:37;6.78;;;3.13;;
72569;SDS011;60594;50.204;8.844;2024-02-16T11:20:23;8.38;;;3.40;;
72569;SDS011;60594;50.204;8.844;2024-02-16T11:23:09;7.22;;;3.33;;
72569;SDS011;60594;50.204;8.844;2024-02-16T11:25:58;6.82;;;3.28;;
72569;SDS011;60594;50.204;8.844;2024-02-16T11:28:46;8.68;;;3.38;;
72569;SDS011;60594;50.204;8.844;2024-02-16T11:31:31;5.68;;;3.55;;
72569;SDS011;60594;50.204;8.844;2024-02-16T11:34:25;5.72;;;3.00;;
72569;SDS011;60594;50.204;8.844;2024-02-16T11:37:12;7.53;;;3.28;;
72569;SDS011;60594;50.204;8.844;2024-02-16T11:39:58;8.07;;;2.83;;
72569;SDS011;60594;50.204;8.844;2024-02-16T11:42:43;7.40;;;3.53;;
72569;SDS011;60594;50.204;8.844;2024-02-16T11:45:33;5.75;;;2.90;;
72569;SDS011;60594;50.204;8.844;2024-02-16T11:48:19;7.13;;;2.88;;
72569;SDS011;60594;50.204;8.844;2024-02-16T11:51:07;5.68;;;2.80;;
72569;SDS011;60594;50.204;8.844;2024-02-16T11:53:55;7.90;;;2.70;;
72569;SDS011;60594;50.204;8.844;2024-02-16T11:56:45;5.28;;;2.85;;
72569;SDS011;60594;50.204;8.844;2024-02-16T11:59:30;6.07;;;2.55;;
72569;SDS011;60594;50.204;8.844;2024-02-16T12:02:19;6.97;;;2.90;;
72569;SDS011;60594;50.204;8.844;2024-02-16T12:05:05;5.95;;;2.55;;
72569;SDS011;60594;50.204;8.844;2024-02-16T12:07:51;6.80;;;2.80;;
72569;SDS011;60594;50.204;8.844;2024-02-16T12:10:36;6.43;;;2.60;;
72569;SDS011;60594;50.204;8.844;2024-02-16T12:13:21;5.53;;;2.60;;
72569;SDS011;60594;50.204;8.844;2024-02-16T12:16:05;6.40;;;2.88;;
72569;SDS011;60594;50.204;8.844;2024-02-16T12:19:01;10.25;;;2.80;;
72569;SDS011;60594;50.204;8.844;2024-02-16T12:21:50;4.97;;;2.20;;
72569;SDS011;60594;50.204;8.844;2024-02-16T12:24:36;5.57;;;2.45;;
72569;SDS011;60594;50.204;8.844;2024-02-16T12:27:21;7.75;;;2.83;;
72569;SDS011;60594;50.204;8.844;2024-02-16T12:30:07;6.55;;;2.90;;
72569;SDS011;60594;50.204;8.844;2024-02-16T12:32:52;5.30;;;3.00;;
72569;SDS011;60594;50.204;8.844;2024-02-16T12:35:37;5.57;;;2.50;;
72569;SDS011;60594;50.204;8.844;2024-02-16T12:38:22;4.90;;;2.22;;
72569;SDS011;60594;50.204;8.844;2024-02-16T12:41:07;5.55;;;2.75;;
72569;SDS011;60594;50.204;8.844;2024-02-16T12:43:53;7.03;;;3.15;;
72569;SDS011;60594;50.204;8.844;2024-02-16T12:46:38;8.23;;;3.03;;
72569;SDS011;60594;50.204;8.844;2024-02-16T12:49:24;5.25;;;2.30;;
72569;SDS011;60594;50.204;8.844;2024-02-16T12:52:10;4.80;;;2.40;;
72569;SDS011;60594;50.204;8.844;2024-02-16T12:54:56;5.07;;;2.25;;
72569;SDS011;60594;50.204;8.844;2024-02-16T12:57:43;5.65;;;2.40;;
72569;SDS011;60594;50.204;8.844;2024-02-16T13:00:29;5.07;;;2.25;;
72569;SDS011;60594;50.204;8.844;2024-02-16T13:03:14;5.35;;;2.05;;
72569;SDS011;60594;50.204;8.844;2024-02-16T13:05:59;5.18;;;1.92;;
72569;SDS011;60594;50.204;8.844;2024-02-16T13:08:44;4.32;;;1.80;;
72569;SDS011;60594;50.204;8.844;2024-02-16T13:11:29;4.57;;;2.00;;
72569;SDS011;60594;50.204;8.844;2024-02-16T13:14:14;3.88;;;1.70;;
72569;SDS011;60594;50.204;8.844;2024-02-16T13:16:59;4.63;;;1.95;;
72569;SDS011;60594;50.204;8.844;2024-02-16T13:19:44;6.18;;;2.17;;
72569;SDS011;60594;50.204;8.844;2024-02-16T13:22:29;5.03;;;2.08;;
72569;SDS011;60594;50.204;8.844;2024-02-16T13:25:14;5.78;;;1.73;;
72569;SDS011;60594;50.204;8.844;2024-02-16T13:28:00;4.70;;;1.90;;
72569;SDS011;60594;50.204;8.844;2024-02-16T13:30:45;4.93;;;2.17;;
72569;SDS011;60594;50.204;8.844;2024-02-16T13:33:29;5.40;;;1.70;;
72569;SDS011;60594;50.204;8.844;2024-02-16T13:36:15;4.78;;;2.40;;
72569;SDS011;60594;50.204;8.844;2024-02-16T13:38:59;4.45;;;1.90;;
72569;SDS011;60594;50.204;8.844;2024-02-16T13:41:45;8.02;;;2.30;;
72569;SDS011;60594;50.204;8.844;2024-02-16T13:44:33;5.65;;;2.00;;
72569;SDS011;60594;50.204;8.844;2024-02-16T13:47:18;5.00;;;2.17;;
72569;SDS011;60594;50.204;8.844;2024-02-16T13:50:02;4.60;;;2.10;;
72569;SDS011;60594;50.204;8.844;2024-02-16T13:52:48;8.20;;;2.20;;
72569;SDS011;60594;50.204;8.844;2024-02-16T13:55:34;5.03;;;2.10;;
72569;SDS011;60594;50.204;8.844;2024-02-16T13:58:19;6.32;;;2.30;;
72569;SDS011;60594;50.204;8.844;2024-02-16T14:01:04;6.43;;;2.17;;
72569;SDS011;60594;50.204;8.844;2024-02-16T14:03:49;7.10;;;2.10;;
72569;SDS011;60594;50.204;8.844;2024-02-16T14:06:35;5.40;;;2.13;;
72569;SDS011;60594;50.204;8.844;2024-02-16T14:09:20;4.38;;;2.20;;
72569;SDS011;60594;50.204;8.844;2024-02-16T14:12:04;5.10;;;2.33;;
72569;SDS011;60594;50.204;8.844;2024-02-16T14:14:50;5.65;;;2.53;;
72569;SDS011;60594;50.204;8.844;2024-02-16T14:17:35;5.05;;;2.20;;
72569;SDS011;60594;50.204;8.844;2024-02-16T14:20:20;5.70;;;2.15;;
72569;SDS011;60594;50.204;8.844;2024-02-16T14:23:07;6.55;;;2.10;;
72569;SDS011;60594;50.204;8.844;2024-02-16T14:25:54;6.28;;;2.17;;
72569;SDS011;60594;50.204;8.844;2024-02-16T14:28:38;5.65;;;2.28;;
72569;SDS011;60594;50.204;8.844;2024-02-16T14:31:23;5.50;;;2.67;;
72569;SDS011;60594;50.204;8.844;2024-02-16T14:34:08;5.28;;;2.17;;
72569;SDS011;60594;50.204;8.844;2024-02-16T14:36:54;6.93;;;2.25;;
72569;SDS011;60594;50.204;8.844;2024-02-16T14:39:39;4.38;;;1.60;;
72569;SDS011;60594;50.204;8.844;2024-02-16T14:42:24;4.97;;;1.92;;
72569;SDS011;60594;50.204;8.844;2024-02-16T14:45:09;5.18;;;2.10;;
72569;SDS011;60594;50.204;8.844;2024-02-16T14:48:04;3.30;;;1.88;;
72569;SDS011;60594;50.204;8.844;2024-02-16T14:50:49;5.70;;;2.00;;
72569;SDS011;60594;50.204;8.844;2024-02-16T14:53:34;5.03;;;1.83;;
72569;SDS011;60594;50.204;8.844;2024-02-16T14:56:19;7.05;;;2.08;;
72569;SDS011;60594;50.204;8.844;2024-02-16T14:59:06;5.05;;;2.00;;
72569;SDS011;60594;50.204;8.844;2024-02-16T15:01:51;4.57;;;2.00;;
72569;SDS011;60594;50.204;8.844;2024-02-16T15:04:36;4.13;;;2.15;;
72569;SDS011;60594;50.204;8.844;2024-02-16T15:07:21;4.32;;;1.85;;
72569;SDS011;60594;50.204;8.844;2024-02-16T15:10:07;6.65;;;2.63;;
72569;SDS011;60594;50.204;8.844;2024-02-16T15:12:52;5.85;;;2.42;;
72569;SDS011;60594;50.204;8.844;2024-02-16T15:15:37;6.82;;;2.20;;
72569;SDS011;60594;50.204;8.844;2024-02-16T15:18:22;5.47;;;2.05;;
72569;SDS011;60594;50.204;8.844;2024-02-16T15:21:07;5.35;;;2.22;;
72569;SDS011;60594;50.204;8.844;2024-02-16T15:23:51;6.95;;;1.92;;
72569;SDS011;60594;50.204;8.844;2024-02-16T15:26:37;5.07;;;2.00;;
72569;SDS011;60594;50.204;8.844;2024-02-16T15:29:22;6.18;;;2.22;;
72569;SDS011;60594;50.204;8.844;2024-02-16T15:32:07;4.95;;;1.80;;
72569;SDS011;60594;50.204;8.844;2024-02-16T15:34:53;4.63;;;1.90;;
72569;SDS011;60594;50.204;8.844;2024-02-16T15:37:38;4.70;;;2.30;;
72569;SDS011;60594;50.204;8.844;2024-02-16T15:40:24;5.65;;;2.10;;
72569;SDS011;60594;50.204;8.844;2024-02-16T15:43:09;5.68;;;2.20;;
72569;SDS011;60594;50.204;8.844;2024-02-16T15:45:55;4.53;;;2.08;;
72569;SDS011;60594;50.204;8.844;2024-02-16T15:48:40;4.97;;;2.10;;
72569;SDS011;60594;50.204;8.844;2024-02-16T15:51:25;4.13;;;2.10;;
72569;SDS011;60594;50.204;8.844;2024-02-16T15:54:10;5.72;;;2.08;;
72569;SDS011;60594;50.204;8.844;2024-02-16T15:56:55;6.63;;;1.77;;
72569;SDS011;60594;50.204;8.844;2024-02-16T15:59:40;5.35;;;2.25;;
72569;SDS011;60594;50.204;8.844;2024-02-16T16:02:25;6.50;;;2.30;;
72569;SDS011;60594;50.204;8.844;2024-02-16T16:05:10;4.82;;;2.20;;
72569;SDS011;60594;50.204;8.844;2024-02-16T16:07:56;7.53;;;2.97;;
72569;SDS011;60594;50.204;8.844;2024-02-16T16:10:41;6.57;;;2.65;;
72569;SDS011;60594;50.204;8.844;2024-02-16T16:13:26;6.68;;;2.90;;
72569;SDS011;60594;50.204;8.844;2024-02-16T16:16:11;6.32;;;2.30;;
72569;SDS011;60594;50.204;8.844;2024-02-16T16:18:56;5.18;;;2.47;;
72569;SDS011;60594;50.204;8.844;2024-02-16T16:21:41;5.43;;;2.67;;
72569;SDS011;60594;50.204;8.844;2024-02-16T16:24:26;5.40;;;2.63;;
72569;SDS011;60594;50.204;8.844;2024-02-16T16:27:11;7.93;;;2.80;;
72569;SDS011;60594;50.204;8.844;2024-02-16T16:29:56;4.55;;;2.20;;
72569;SDS011;60594;50.204;8.844;2024-02-16T16:32:42;8.15;;;3.92;;
72569;SDS011;60594;50.204;8.844;2024-02-16T16:35:27;6.35;;;3.72;;
72569;SDS011;60594;50.204;8.844;2024-02-16T16:38:12;8.93;;;4.70;;
72569;SDS011;60594;50.204;8.844;2024-02-16T16:40:57;7.25;;;3.20;;